createdAt,value
2023-06-17T00:14:49.808Z,100019.13
2023-06-17T01:15:29.903Z,99950.25
2023-06-17T02:07:54.454Z,100039.91
2023-06-17T02:11:03.649Z,100034.03
2023-06-17T02:14:14.846Z,100029.09
2023-06-17T02:17:27.021Z,100027.91
2023-06-17T02:20:52.690Z,100011.03
2023-06-17T02:23:59.158Z,100009.34
2023-06-17T02:27:08.853Z,100016.50
2023-06-17T02:30:24.482Z,99973.84
2023-06-17T02:33:42.131Z,99969.09
2023-06-17T02:36:54.752Z,99963.47
2023-06-17T02:40:09.599Z,99905.09
2023-06-17T02:43:21.840Z,99984.19
2023-06-17T02:46:32.587Z,99984.97
2023-06-17T02:49:51.657Z,99975.56
2023-06-17T02:53:15.652Z,99933.84
2023-06-17T03:05:30.192Z,99808.84
2023-06-17T03:08:38.511Z,99947.06
2023-06-17T03:11:44.568Z,99960.34
2023-06-17T03:14:52.462Z,99903.38
2023-06-17T03:17:59.776Z,99947.34
2023-06-17T03:21:05.764Z,99935.44
2023-06-17T03:24:13.140Z,99929.69
2023-06-17T03:27:20.273Z,99932.81
2023-06-17T03:30:26.678Z,99892.16
2023-06-17T03:33:32.663Z,99904.22
2023-06-17T03:36:39.081Z,99898.97
2023-06-17T03:39:45.647Z,99890.03
2023-06-17T03:42:53.305Z,99892.13
2023-06-17T03:45:59.780Z,99880.09
2023-06-17T03:49:05.879Z,99865.13
2023-06-17T03:52:12.022Z,99878.81
2023-06-17T03:55:18.896Z,99867.00
2023-06-17T03:58:26.905Z,99862.34
2023-06-17T04:01:32.952Z,99868.34
2023-06-17T04:04:40.431Z,99856.13
2023-06-17T04:07:48.728Z,99843.41
2023-06-17T04:10:54.696Z,99835.34
2023-06-17T04:14:01.613Z,99850.63
2023-06-17T04:17:08.571Z,99761.63
2023-06-17T04:20:15.121Z,99808.84
2023-06-17T04:23:22.885Z,99791.75
2023-06-17T04:26:31.827Z,99799.97
2023-06-17T04:29:38.669Z,99805.00
2023-06-17T04:32:46.410Z,99840.09
2023-06-17T04:35:55.971Z,99803.34
2023-06-17T04:39:02.504Z,99801.94
2023-06-17T04:42:09.168Z,99788.72
2023-06-17T04:45:17.527Z,99753.53
2023-06-17T04:48:26.974Z,99790.59
2023-06-17T04:51:32.942Z,99807.97
2023-06-17T04:54:39.431Z,99765.78
2023-06-17T04:57:45.408Z,99821.00
2023-06-17T05:00:54.267Z,99782.31
2023-06-17T05:04:04.988Z,99774.78
2023-06-17T05:07:13.189Z,99796.06
2023-06-17T05:10:21.487Z,99806.69
2023-06-17T05:13:52.035Z,99686.19
2023-06-17T05:17:21.880Z,99755.38
2023-06-17T05:20:31.428Z,99797.72
2023-06-17T05:23:43.588Z,99783.66
2023-06-17T05:27:12.754Z,99741.25
2023-06-17T05:30:27.881Z,99778.78
2023-06-17T05:33:56.925Z,99772.84
2023-06-17T05:37:12.013Z,99701.84
2023-06-17T05:40:20.907Z,99799.72
2023-06-17T05:43:32.749Z,99798.13
2023-06-17T05:46:41.780Z,99783.31
2023-06-17T05:49:49.281Z,99805.44
2023-06-17T05:53:06.091Z,99778.28
2023-06-17T05:56:15.357Z,99773.88
2023-06-17T05:59:29.706Z,99759.19
2023-06-17T06:02:43.190Z,99789.19
2023-06-17T06:05:54.645Z,99799.69
2023-06-17T06:09:50.331Z,99730.00
2023-06-17T06:21:02.388Z,99697.09
2023-06-17T06:24:08.545Z,99799.75
2023-06-17T06:27:22.172Z,99794.09
2023-06-17T06:30:28.320Z,99797.38
2023-06-17T06:33:37.222Z,99793.44
2023-06-17T06:36:49.421Z,99798.97
2023-06-17T06:39:56.073Z,99808.16
2023-06-17T06:43:03.148Z,99801.50
2023-06-17T06:46:24.729Z,99797.53
2023-06-17T06:49:33.197Z,99820.59
2023-06-17T06:52:39.294Z,99829.22
2023-06-17T06:55:45.276Z,99809.59
2023-06-17T06:58:51.956Z,99799.59
2023-06-17T07:01:58.493Z,99830.81
2023-06-17T07:05:06.227Z,99834.09
2023-06-17T07:08:18.471Z,99842.94
2023-06-17T07:11:26.603Z,99843.19
2023-06-17T07:14:32.537Z,99842.09
2023-06-17T07:17:39.407Z,99833.19
2023-06-17T07:20:45.554Z,99835.81
2023-06-17T07:23:53.385Z,99816.63
2023-06-17T07:27:01.106Z,99857.03
2023-06-17T07:30:08.152Z,99860.97
2023-06-17T07:33:14.837Z,99855.09
2023-06-17T07:36:20.674Z,99862.44
2023-06-17T07:39:27.576Z,99830.75
2023-06-17T07:42:33.379Z,99848.28
2023-06-17T07:45:39.557Z,99873.16
2023-06-17T07:48:45.368Z,99880.09
2023-06-17T07:51:51.401Z,99877.59
2023-06-17T07:54:58.059Z,99819.97
2023-06-17T07:58:02.712Z,99890.09
2023-06-17T08:01:10.637Z,99828.78
2023-06-17T08:04:16.676Z,99885.06
2023-06-17T08:07:23.430Z,99904.75
2023-06-17T08:10:29.340Z,99925.00
2023-06-17T08:13:35.350Z,99916.19
2023-06-17T08:16:42.033Z,99896.72
2023-06-17T08:20:12.073Z,99918.44
2023-06-17T08:23:18.671Z,99889.88
2023-06-17T08:26:31.196Z,99916.50
2023-06-17T08:29:37.832Z,99919.63
2023-06-17T08:32:44.267Z,99930.94
2023-06-17T08:35:50.283Z,99915.78
2023-06-17T08:39:04.548Z,99933.25
2023-06-17T08:42:11.634Z,99939.94
2023-06-17T08:45:21.957Z,99922.50
2023-06-17T08:48:28.022Z,99949.25
2023-06-17T08:51:34.916Z,99923.25
2023-06-17T08:54:49.974Z,99954.38
2023-06-17T08:57:56.534Z,99906.06
2023-06-17T09:01:03.087Z,99909.13
2023-06-17T09:04:13.420Z,99950.97
2023-06-17T09:07:22.408Z,99966.69
2023-06-17T09:10:44.481Z,99982.38
2023-06-17T09:13:55.070Z,99972.06
2023-06-17T09:17:08.307Z,99988.09
2023-06-17T09:20:20.066Z,99983.16
2023-06-17T09:48:32.032Z,99998.13
2023-06-17T09:51:48.511Z,99993.09
2023-06-17T09:55:10.962Z,99994.97
2023-06-17T09:59:12.239Z,99888.38
2023-06-17T10:02:59.588Z,99881.06
2023-06-17T10:15:22.324Z,99897.09
2023-06-17T10:18:49.871Z,100030.97
2023-06-17T10:22:01.153Z,100050.47
2023-06-17T10:25:11.011Z,100028.34
2023-06-17T10:28:58.624Z,100067.09
2023-06-17T10:32:28.198Z,100072.25
2023-06-17T10:35:45.613Z,100078.50
2023-06-17T10:39:00.260Z,100083.34
2023-06-17T10:42:15.205Z,100064.38
2023-06-17T10:45:21.820Z,100084.03
2023-06-17T10:48:30.311Z,100089.19
2023-06-17T10:51:51.981Z,100082.94
2023-06-17T10:55:06.679Z,100095.72
2023-06-17T10:58:24.058Z,100061.84
2023-06-17T11:01:29.625Z,100122.66
2023-06-17T11:04:43.069Z,100132.53
2023-06-17T11:07:49.614Z,100120.88
2023-06-17T11:10:55.821Z,100142.66
2023-06-17T11:14:01.564Z,100146.69
2023-06-17T11:17:10.512Z,100095.97
2023-06-17T11:20:19.706Z,100113.13
2023-06-17T11:23:26.115Z,100149.09
2023-06-17T11:26:30.012Z,100153.91
2023-06-17T11:29:35.067Z,100135.22
2023-06-17T11:32:43.545Z,100160.91
2023-06-17T11:35:50.819Z,100140.16
2023-06-17T11:38:57.356Z,100120.53
2023-06-17T11:42:04.932Z,100119.28
2023-06-17T11:45:10.985Z,100150.13
2023-06-17T11:48:20.978Z,100168.56
2023-06-17T11:51:27.124Z,100103.59
2023-06-17T11:54:33.495Z,100120.25
2023-06-17T11:57:39.802Z,100129.56
2023-06-17T12:00:48.777Z,100157.59
2023-06-17T12:03:57.506Z,100174.28
2023-06-17T12:07:09.283Z,100128.16
2023-06-17T12:10:15.378Z,100192.03
2023-06-17T12:13:24.676Z,100132.34
2023-06-17T12:16:35.458Z,100127.59
2023-06-17T12:19:41.635Z,100168.81
2023-06-17T12:22:53.154Z,100195.56
2023-06-17T12:26:03.618Z,100202.84
2023-06-17T12:29:25.628Z,100112.41
2023-06-17T12:32:34.114Z,100204.22
2023-06-17T12:35:43.088Z,100111.00
2023-06-17T12:38:50.225Z,100206.47
2023-06-17T12:41:58.764Z,100218.69
2023-06-17T12:45:08.891Z,100219.06
2023-06-17T12:48:14.627Z,100220.91
2023-06-17T12:51:24.131Z,100230.84
2023-06-17T12:54:29.667Z,100232.84
2023-06-17T12:57:35.765Z,100222.09
2023-06-17T13:00:44.117Z,100222.00
2023-06-17T13:03:50.300Z,100238.03
2023-06-17T13:06:59.077Z,100250.13
2023-06-17T13:10:08.714Z,100257.50
2023-06-17T13:13:15.457Z,100254.81
2023-06-17T13:16:28.525Z,100238.63
2023-06-17T13:19:36.517Z,100211.75
2023-06-17T13:22:49.396Z,100252.84
2023-06-17T13:25:55.561Z,100240.56
2023-06-17T13:29:06.159Z,100264.25
2023-06-17T13:32:10.099Z,100233.41
2023-06-17T13:35:16.212Z,100207.34
2023-06-17T13:38:21.843Z,100256.38
2023-06-17T13:41:32.650Z,100250.25
2023-06-17T13:44:43.403Z,100236.41
2023-06-17T13:47:57.532Z,100232.78
2023-06-17T13:51:05.009Z,100250.13
2023-06-17T13:54:12.178Z,100195.28
2023-06-17T13:57:24.046Z,100243.91
2023-06-17T14:00:30.714Z,100246.38
2023-06-17T14:03:38.458Z,100251.09
2023-06-17T14:06:48.048Z,100260.03
2023-06-17T14:09:57.136Z,100277.06
2023-06-17T14:13:03.344Z,100251.72
2023-06-17T14:16:09.312Z,100288.91
2023-06-17T14:19:15.694Z,100291.19
2023-06-17T14:22:28.582Z,100239.91
2023-06-17T14:25:40.689Z,100294.72
2023-06-17T14:28:48.812Z,100305.22
2023-06-17T14:31:56.250Z,100268.53
2023-06-17T14:35:04.675Z,100291.81
2023-06-17T14:38:12.429Z,100279.94
2023-06-17T14:41:18.464Z,100285.03
2023-06-17T14:44:27.039Z,100171.34
2023-06-17T14:47:33.062Z,100260.59
2023-06-17T14:50:39.253Z,100278.19
2023-06-17T14:53:45.147Z,100284.81
2023-06-17T14:56:52.044Z,100278.28
2023-06-17T14:59:57.829Z,100247.09
2023-06-17T15:03:11.136Z,100256.88
2023-06-17T15:06:15.450Z,100248.41
2023-06-17T15:09:31.102Z,100230.13
2023-06-17T15:12:46.956Z,100234.06
2023-06-17T15:15:58.098Z,100275.53
2023-06-17T15:19:09.130Z,100274.22
2023-06-17T15:22:16.189Z,100270.47
2023-06-17T15:25:22.271Z,100260.72
2023-06-17T15:28:31.070Z,100245.59
2023-06-17T15:31:37.238Z,100212.56
2023-06-17T15:34:43.830Z,100234.69
2023-06-17T15:37:55.364Z,100266.09
2023-06-17T15:41:05.066Z,100092.94
2023-06-17T15:44:15.018Z,100203.66
2023-06-17T15:47:26.529Z,100133.19
2023-06-17T15:50:40.193Z,100085.13
2023-06-17T15:53:55.610Z,100083.41
2023-06-17T15:57:06.540Z,100272.63
2023-06-17T16:00:19.678Z,100278.72
2023-06-17T16:03:49.917Z,100251.69
2023-06-17T16:07:29.118Z,100237.34
2023-06-17T16:10:57.210Z,100239.69
2023-06-17T16:14:17.854Z,100275.72
2023-06-17T16:17:37.194Z,100217.41
2023-06-17T16:21:21.215Z,100195.03
2023-06-17T16:25:12.587Z,100159.53
2023-06-17T16:28:36.146Z,100136.91
2023-06-17T16:32:02.048Z,100261.94
2023-06-17T16:35:39.241Z,100245.44
2023-06-17T16:39:06.741Z,100312.44
2023-06-17T16:42:31.053Z,100252.16
2023-06-17T16:46:08.198Z,100230.00
2023-06-17T16:49:24.442Z,100312.16
2023-06-17T16:52:31.414Z,100265.97
2023-06-17T16:55:37.882Z,100321.38
2023-06-17T16:58:44.955Z,100220.81
2023-06-17T17:01:51.655Z,100274.78
2023-06-17T17:04:57.493Z,100192.19
2023-06-17T17:08:08.728Z,100250.72
2023-06-17T17:11:14.795Z,100275.91
2023-06-17T17:14:21.037Z,100240.75
2023-06-17T17:17:29.877Z,100278.97
2023-06-17T17:20:36.264Z,100295.63
2023-06-17T17:23:43.086Z,100317.13
2023-06-17T17:26:49.305Z,100334.44
2023-06-17T17:29:58.958Z,100327.66
2023-06-17T17:33:05.752Z,100287.50
2023-06-17T17:36:14.654Z,100254.69
2023-06-17T17:39:20.957Z,100317.56
2023-06-17T17:42:29.801Z,100254.47
2023-06-17T17:45:36.092Z,100356.47
2023-06-17T17:48:42.376Z,100315.50
2023-06-17T17:51:48.443Z,100333.06
2023-06-17T17:55:01.811Z,100367.38
2023-06-17T17:58:11.498Z,100373.69
2023-06-17T18:01:17.752Z,100370.19
2023-06-17T18:04:24.230Z,100371.84
2023-06-17T18:07:32.379Z,100364.69
2023-06-17T18:10:38.761Z,100371.94
2023-06-17T18:13:47.428Z,100372.81
2023-06-17T18:16:53.670Z,100371.25
2023-06-17T18:19:59.344Z,100377.44
2023-06-17T18:23:07.155Z,100386.69
2023-06-17T18:26:15.986Z,100337.53
2023-06-17T18:29:28.930Z,100348.44
2023-06-17T18:32:37.603Z,100276.91
2023-06-17T18:35:46.294Z,100403.25
2023-06-17T18:38:52.006Z,100408.03
2023-06-17T18:41:58.212Z,100407.06
2023-06-17T18:45:04.749Z,100410.34
2023-06-17T18:48:10.396Z,100431.53
2023-06-17T18:51:25.053Z,100416.34
2023-06-17T18:55:02.518Z,100375.28
2023-06-17T19:04:10.531Z,100317.47
2023-06-17T19:45:16.379Z,100396.81
2023-06-17T19:53:44.928Z,100463.03
2023-06-17T19:57:27.100Z,100340.25
2023-06-17T20:01:51.232Z,100284.38
2023-06-17T20:14:56.325Z,100327.09
2023-06-17T20:19:36.086Z,100304.06
2023-06-17T20:23:24.624Z,100309.00
2023-06-17T20:47:52.742Z,100501.00
2023-06-17T21:59:11.818Z,100400.59
2023-06-17T22:24:48.699Z,100471.13
2023-06-17T22:37:55.696Z,100449.00
2023-06-17T22:51:09.730Z,100510.16
2023-06-17T23:03:43.158Z,100469.50
2023-06-17T23:07:09.706Z,100454.94
2023-06-17T23:10:17.265Z,100491.50
2023-06-17T23:13:24.831Z,100465.28
2023-06-17T23:16:31.226Z,100504.84
2023-06-17T23:19:37.449Z,100543.88
2023-06-17T23:22:44.031Z,100533.81
2023-06-17T23:25:51.482Z,100546.59
2023-06-17T23:28:58.704Z,100523.78
2023-06-17T23:32:04.492Z,100546.28
2023-06-17T23:35:12.249Z,100529.63
2023-06-17T23:38:18.316Z,100529.97
2023-06-17T23:41:26.508Z,100549.81
2023-06-17T23:44:37.778Z,100538.09
2023-06-17T23:47:47.062Z,100507.78
2023-06-17T23:50:55.002Z,100533.47
2023-06-17T23:54:02.369Z,100553.34
2023-06-17T23:57:10.452Z,100559.38
